Terminal Aerodrome Forecast
Issued by NWS Wilmington, OH

Current Version | Previous Version | Graphics & Text | Print | Product List | Glossary On
Versions: 1 2 3 4 5 6 7 8 9 10 11 12 13 14 15 16 17
322
FTUS41 KILN 160223 AAA
TAFCMH
TAF AMD
KCMH 160223Z 1602/1624 23012KT 4SM BR OVC006
     FM160500 26014KT P6SM FEW040
     FM160930 27013KT P6SM BKN015
     FM161800 29012KT P6SM BKN025=

USA.gov is the U.S. government's official web portal to all federal, state and local government web resources and services.